createdAt,value
2018-11-11T00:00:34.308Z,79.59
2018-11-11T00:03:03.058Z,80.10
2018-11-11T00:05:31.797Z,80.06
2018-11-11T00:08:00.422Z,79.21
2018-11-11T00:10:29.063Z,79.79
2018-11-11T00:12:57.722Z,80.42
2018-11-11T00:15:26.432Z,79.96
2018-11-11T00:17:55.086Z,80.13
2018-11-11T00:20:23.865Z,80.61
2018-11-11T00:22:52.473Z,80.74
2018-11-11T00:25:21.102Z,80.85
2018-11-11T00:27:49.724Z,81.34
2018-11-11T00:30:19.456Z,80.37
2018-11-11T00:32:48.130Z,80.04
2018-11-11T00:35:16.809Z,80.48
2018-11-11T00:37:45.431Z,81.27
2018-11-11T00:40:15.544Z,81.58
2018-11-11T00:42:44.537Z,82.57
2018-11-11T00:45:13.949Z,82.63
2018-11-11T00:47:42.747Z,82.63
2018-11-11T00:50:12.078Z,82.84
2018-11-11T00:52:40.793Z,82.81
2018-11-11T00:55:12.632Z,82.58
2018-11-11T00:57:41.673Z,83.31
2018-11-11T01:00:13.001Z,83.22
2018-11-11T01:02:42.265Z,83.51
2018-11-11T01:05:11.864Z,83.66
2018-11-11T01:07:41.466Z,84.13
2018-11-11T01:10:12.072Z,85.64
2018-11-11T01:12:41.768Z,87.24
2018-11-11T01:15:12.141Z,87.39
2018-11-11T01:17:40.827Z,87.06
2018-11-11T01:20:11.645Z,87.92
2018-11-11T01:22:40.301Z,88.54
2018-11-11T01:25:11.140Z,88.96
2018-11-11T01:27:39.793Z,87.38
2018-11-11T01:30:08.969Z,86.50
2018-11-11T01:32:37.829Z,86.51
2018-11-11T01:35:08.473Z,87.33
2018-11-11T01:37:37.134Z,87.91
2018-11-11T01:40:06.681Z,88.25
2018-11-11T01:42:35.317Z,87.07
2018-11-11T01:45:04.018Z,87.43
2018-11-11T01:47:32.639Z,86.82
2018-11-11T01:50:01.318Z,87.96
2018-11-11T01:52:29.959Z,86.50
2018-11-11T01:54:58.602Z,86.08
2018-11-11T01:57:27.250Z,85.93
2018-11-11T01:59:55.948Z,86.35
2018-11-11T02:02:24.661Z,86.50
2018-11-11T02:04:53.303Z,86.24
2018-11-11T02:07:21.958Z,87.89
2018-11-11T02:09:50.761Z,87.05
2018-11-11T02:12:19.343Z,87.47
2018-11-11T02:14:48.273Z,87.56
2018-11-11T02:17:16.927Z,86.34
2018-11-11T02:19:45.653Z,85.39
2018-11-11T02:22:14.650Z,86.77
2018-11-11T02:24:43.261Z,86.19
2018-11-11T02:27:11.976Z,85.63
2018-11-11T02:29:40.582Z,85.10
2018-11-11T02:32:09.593Z,86.45
2018-11-11T02:34:38.237Z,86.86
2018-11-11T02:37:07.226Z,86.33
2018-11-11T02:39:35.854Z,84.77
2018-11-11T02:42:04.529Z,85.69
2018-11-11T02:44:33.205Z,85.72
2018-11-11T02:47:01.841Z,85.67
2018-11-11T02:49:30.798Z,86.37
2018-11-11T02:51:59.464Z,86.59
2018-11-11T02:54:28.136Z,84.59
2018-11-11T02:56:57.052Z,85.08
2018-11-11T02:59:25.726Z,85.72
2018-11-11T03:01:54.390Z,83.98
2018-11-11T03:04:23.118Z,86.94
2018-11-11T03:06:51.697Z,84.81
2018-11-11T03:09:20.360Z,84.78
2018-11-11T03:11:49.022Z,84.38
2018-11-11T03:14:17.642Z,86.09
2018-11-11T03:16:46.261Z,88.54
2018-11-11T03:19:14.921Z,86.42
2018-11-11T03:21:43.557Z,86.45
2018-11-11T03:24:12.182Z,84.78
2018-11-11T03:26:40.816Z,87.49
2018-11-11T03:29:09.571Z,85.62
2018-11-11T03:31:38.201Z,85.14
2018-11-11T03:34:06.829Z,88.15
2018-11-11T03:36:35.438Z,87.28
2018-11-11T03:39:04.382Z,87.40
2018-11-11T03:41:33.042Z,87.87
2018-11-11T03:44:01.698Z,86.46
2018-11-11T03:46:30.368Z,87.09
2018-11-11T03:48:59.030Z,88.29
2018-11-11T03:51:27.679Z,85.74
2018-11-11T03:53:56.356Z,86.55
2018-11-11T03:56:25.006Z,86.05
2018-11-11T03:58:53.657Z,87.19
2018-11-11T04:01:22.638Z,85.63
2018-11-11T04:03:51.297Z,86.04
2018-11-11T04:06:19.962Z,85.95
2018-11-11T04:08:48.603Z,86.91
2018-11-11T04:11:17.277Z,87.22
2018-11-11T04:13:46.152Z,87.70
2018-11-11T04:16:14.825Z,89.14
2018-11-11T04:18:43.504Z,87.61
2018-11-11T04:21:12.270Z,88.08
2018-11-11T04:23:40.964Z,88.26
2018-11-11T04:26:09.669Z,89.71
2018-11-11T04:28:38.315Z,90.26
2018-11-11T04:31:07.221Z,89.71
2018-11-11T04:33:35.869Z,87.95
2018-11-11T04:36:04.574Z,89.30
2018-11-11T04:38:33.213Z,88.80
2018-11-11T04:41:01.849Z,88.89
2018-11-11T04:43:30.479Z,88.92
2018-11-11T04:45:59.145Z,87.77
2018-11-11T04:48:27.814Z,86.38
2018-11-11T04:50:56.497Z,86.32
2018-11-11T04:53:25.128Z,86.58
2018-11-11T04:55:53.793Z,88.14
2018-11-11T04:58:22.477Z,86.99
2018-11-11T05:00:51.115Z,86.36
2018-11-11T05:03:19.806Z,87.14
2018-11-11T05:05:48.474Z,88.43
2018-11-11T05:08:17.153Z,87.88
2018-11-11T05:10:52.089Z,88.86
2018-11-11T05:13:20.708Z,86.34
2018-11-11T05:15:49.319Z,88.44
2018-11-11T05:18:17.983Z,88.55
2018-11-11T05:20:46.643Z,88.12
2018-11-11T05:23:15.334Z,88.46
2018-11-11T05:25:43.969Z,87.94
2018-11-11T05:28:12.598Z,86.38
2018-11-11T05:30:41.225Z,88.25
2018-11-11T05:33:09.923Z,86.80
2018-11-11T05:35:38.582Z,89.96
2018-11-11T05:38:07.436Z,83.67
2018-11-11T05:40:36.100Z,80.33
2018-11-11T05:43:04.795Z,82.76
2018-11-11T05:45:33.505Z,87.08
2018-11-11T05:48:02.134Z,87.14
2018-11-11T05:50:31.195Z,88.71
2018-11-11T05:52:59.901Z,87.44
2018-11-11T05:55:28.524Z,85.64
2018-11-11T05:57:57.214Z,87.65
2018-11-11T06:00:25.941Z,86.41
2018-11-11T06:02:54.582Z,87.52
2018-11-11T06:05:23.270Z,86.46
2018-11-11T06:07:51.988Z,82.84
2018-11-11T06:10:20.726Z,80.93
2018-11-11T06:12:49.424Z,79.40
2018-11-11T06:15:18.049Z,78.29
2018-11-11T06:17:46.759Z,77.36
2018-11-11T06:20:16.470Z,75.60
2018-11-11T06:22:45.179Z,76.27
2018-11-11T06:25:13.804Z,76.62
2018-11-11T06:27:42.452Z,75.33
2018-11-11T06:30:11.945Z,73.47
2018-11-11T06:32:40.632Z,73.57
2018-11-11T06:35:09.474Z,73.55
2018-11-11T06:37:38.237Z,72.88
2018-11-11T06:40:08.685Z,71.11
2018-11-11T06:42:37.662Z,70.39
2018-11-11T06:45:07.730Z,70.64
2018-11-11T06:47:36.368Z,70.48
2018-11-11T06:50:05.766Z,70.11
2018-11-11T06:52:34.415Z,69.29
2018-11-11T06:55:03.105Z,69.11
2018-11-11T06:57:31.986Z,68.09
2018-11-11T07:00:00.593Z,67.71
2018-11-11T07:02:35.054Z,68.70
2018-11-11T07:05:04.048Z,68.31
2018-11-11T07:07:32.746Z,67.99
2018-11-11T07:10:01.501Z,67.85
2018-11-11T07:12:30.207Z,67.35
2018-11-11T07:14:58.833Z,67.79
2018-11-11T07:17:27.502Z,67.10
2018-11-11T07:19:56.100Z,67.05
2018-11-11T07:22:24.789Z,66.10
2018-11-11T07:24:53.429Z,65.23
2018-11-11T07:27:22.146Z,65.01
2018-11-11T07:29:50.753Z,65.37
2018-11-11T07:32:19.447Z,65.48
2018-11-11T07:34:48.074Z,63.83
2018-11-11T07:37:16.834Z,63.60
2018-11-11T07:39:45.504Z,62.76
2018-11-11T07:42:14.500Z,61.89
2018-11-11T07:44:43.121Z,61.70
2018-11-11T07:47:11.767Z,63.61
2018-11-11T07:49:40.563Z,63.23
2018-11-11T07:52:09.243Z,62.37
2018-11-11T07:54:37.881Z,62.84
2018-11-11T07:57:06.604Z,61.58
2018-11-11T07:59:35.309Z,59.99
2018-11-11T08:02:04.023Z,59.27
2018-11-11T08:04:32.658Z,60.22
2018-11-11T08:07:01.313Z,59.06
2018-11-11T08:09:29.970Z,59.78
2018-11-11T08:12:00.149Z,59.15
2018-11-11T08:14:29.252Z,59.54
2018-11-11T08:16:58.190Z,59.71
2018-11-11T08:19:26.958Z,59.65
2018-11-11T08:21:55.603Z,59.24
2018-11-11T08:24:24.297Z,58.45
2018-11-11T08:26:53.230Z,57.71
2018-11-11T08:29:21.901Z,57.95
2018-11-11T08:31:50.528Z,57.82
2018-11-11T08:34:19.153Z,58.19
2018-11-11T08:36:48.054Z,56.91
2018-11-11T08:39:17.462Z,56.37
2018-11-11T08:41:46.601Z,55.60
2018-11-11T08:44:15.327Z,55.70
2018-11-11T08:46:45.224Z,55.02
2018-11-11T08:49:14.622Z,54.90
2018-11-11T08:51:43.282Z,54.29
2018-11-11T08:54:11.910Z,53.44
2018-11-11T08:56:40.581Z,53.09
2018-11-11T08:59:09.251Z,53.48
2018-11-11T09:01:37.976Z,53.22
2018-11-11T09:04:07.138Z,52.77
2018-11-11T09:06:35.799Z,52.35
2018-11-11T09:09:05.192Z,51.86
2018-11-11T09:11:33.992Z,51.27
2018-11-11T09:14:02.557Z,50.56
2018-11-11T09:16:31.239Z,51.17
2018-11-11T09:18:59.911Z,51.58
2018-11-11T09:21:29.098Z,52.04
2018-11-11T09:23:57.729Z,51.87
2018-11-11T09:26:26.381Z,50.05
2018-11-11T09:28:55.074Z,50.64
2018-11-11T09:31:23.902Z,50.92
2018-11-11T09:33:52.564Z,50.54
2018-11-11T09:36:21.265Z,51.10
2018-11-11T09:38:49.951Z,50.79
2018-11-11T09:41:18.604Z,51.48
2018-11-11T09:43:47.295Z,50.21
2018-11-11T09:46:15.985Z,49.98
2018-11-11T09:48:44.628Z,51.15
2018-11-11T09:51:13.328Z,50.32
2018-11-11T09:53:42.041Z,50.75
2018-11-11T09:56:10.705Z,50.79
2018-11-11T09:58:39.409Z,49.50
2018-11-11T10:01:08.197Z,49.40
2018-11-11T10:03:42.746Z,49.86
2018-11-11T10:06:18.302Z,50.43
2018-11-11T10:08:52.169Z,49.99
2018-11-11T10:11:59.118Z,50.15
2018-11-11T10:14:39.401Z,50.96
2018-11-11T10:18:11.766Z,51.68
2018-11-11T10:21:01.646Z,50.69
2018-11-11T10:23:35.598Z,50.36
2018-11-11T10:26:10.003Z,48.83
2018-11-11T10:28:46.417Z,48.58
2018-11-11T10:32:19.028Z,47.63
2018-11-11T10:35:23.122Z,47.66
2018-11-11T10:37:58.280Z,46.76
2018-11-11T10:41:30.746Z,46.88
2018-11-11T10:44:03.773Z,47.17
2018-11-11T10:46:42.123Z,46.80
2018-11-11T10:49:12.555Z,46.32
2018-11-11T10:51:41.215Z,46.44
2018-11-11T10:54:09.951Z,46.35
2018-11-11T10:56:38.565Z,46.64
2018-11-11T10:59:07.242Z,45.40
2018-11-11T11:01:41.090Z,45.42
2018-11-11T11:04:10.133Z,46.25
2018-11-11T11:06:43.898Z,47.27
2018-11-11T11:09:13.807Z,45.53
2018-11-11T11:11:43.605Z,45.62
2018-11-11T11:14:12.782Z,44.34
2018-11-11T11:16:41.434Z,45.54
2018-11-11T11:19:10.180Z,45.62
2018-11-11T11:21:39.115Z,44.83
2018-11-11T11:24:07.766Z,44.92
2018-11-11T11:26:36.390Z,43.87
2018-11-11T11:29:05.136Z,43.28
2018-11-11T11:31:33.877Z,42.88
2018-11-11T11:34:02.786Z,43.52
2018-11-11T11:36:31.469Z,42.81
2018-11-11T11:39:00.168Z,42.51
2018-11-11T11:41:28.936Z,42.65
2018-11-11T11:43:57.640Z,42.31
2018-11-11T11:46:26.266Z,41.93
2018-11-11T11:48:54.992Z,41.95
2018-11-11T11:51:23.638Z,42.07
2018-11-11T11:53:52.265Z,42.92
2018-11-11T11:56:20.954Z,43.96
2018-11-11T11:58:50.461Z,43.44
2018-11-11T12:01:19.115Z,43.41
2018-11-11T12:03:47.715Z,43.12
2018-11-11T12:06:16.378Z,41.97
2018-11-11T12:08:45.145Z,42.79
2018-11-11T12:11:13.771Z,42.84
2018-11-11T12:13:42.447Z,41.98
2018-11-11T12:16:11.078Z,42.86
2018-11-11T12:18:40.413Z,42.71
2018-11-11T12:21:09.073Z,42.77
2018-11-11T12:23:37.709Z,42.74
2018-11-11T12:26:06.378Z,43.11
2018-11-11T12:28:35.143Z,43.03
2018-11-11T12:31:03.814Z,42.54
2018-11-11T12:33:32.463Z,43.41
2018-11-11T12:36:01.113Z,43.02
2018-11-11T12:38:29.750Z,42.45
2018-11-11T12:40:58.504Z,42.65
2018-11-11T12:43:27.149Z,43.09
2018-11-11T12:45:55.815Z,43.29
2018-11-11T12:48:24.496Z,43.07
2018-11-11T12:50:53.141Z,42.97
2018-11-11T12:53:21.814Z,42.18
2018-11-11T12:55:50.485Z,42.89
2018-11-11T12:58:19.131Z,43.91
2018-11-11T13:00:47.814Z,43.82
2018-11-11T13:03:16.509Z,44.39
2018-11-11T13:05:45.136Z,44.47
2018-11-11T13:08:13.830Z,43.68
2018-11-11T13:10:42.486Z,43.70
2018-11-11T13:13:11.222Z,42.99
2018-11-11T13:15:39.899Z,42.74
2018-11-11T13:18:08.560Z,42.62
2018-11-11T13:20:37.217Z,43.01
2018-11-11T13:23:06.180Z,42.81
2018-11-11T13:25:34.902Z,43.22
2018-11-11T13:28:03.517Z,43.66
2018-11-11T13:30:32.167Z,44.76
2018-11-11T13:33:00.852Z,43.47
2018-11-11T13:35:29.502Z,44.04
2018-11-11T13:37:58.254Z,44.72
2018-11-11T13:40:26.889Z,44.87
2018-11-11T13:42:56.286Z,45.32
2018-11-11T13:45:24.953Z,46.27
2018-11-11T13:47:53.613Z,45.44
2018-11-11T13:50:23.699Z,46.20
2018-11-11T13:52:52.916Z,46.57
2018-11-11T13:55:22.409Z,46.54
2018-11-11T13:57:51.430Z,46.86
2018-11-11T14:00:28.966Z,46.98
2018-11-11T14:02:57.894Z,47.92
2018-11-11T14:05:26.829Z,47.75
2018-11-11T14:07:55.514Z,47.86
2018-11-11T14:10:24.229Z,48.14
2018-11-11T14:12:52.887Z,48.46
2018-11-11T14:15:23.612Z,48.38
2018-11-11T14:17:52.823Z,48.69
2018-11-11T14:20:22.854Z,48.98
2018-11-11T14:22:52.333Z,49.32
2018-11-11T14:25:23.744Z,49.27
2018-11-11T14:27:52.345Z,49.54
2018-11-11T14:30:22.463Z,49.01
2018-11-11T14:32:52.280Z,49.76
2018-11-11T14:35:20.979Z,49.64
2018-11-11T14:37:49.866Z,50.51
2018-11-11T14:40:25.634Z,50.62
2018-11-11T14:42:54.314Z,50.00
2018-11-11T14:45:23.489Z,50.72
2018-11-11T14:47:53.414Z,50.67
2018-11-11T14:50:22.738Z,50.94
2018-11-11T14:52:51.455Z,51.20
2018-11-11T14:55:22.582Z,51.46
2018-11-11T14:57:51.216Z,51.34
2018-11-11T15:00:23.967Z,51.64
2018-11-11T15:03:06.718Z,51.92
2018-11-11T15:05:35.514Z,52.28
2018-11-11T15:08:04.301Z,52.95
2018-11-11T15:10:32.945Z,52.50
2018-11-11T15:13:01.656Z,52.88
2018-11-11T15:15:30.275Z,52.98
2018-11-11T15:17:59.958Z,53.18
2018-11-11T15:20:28.657Z,53.41
2018-11-11T15:22:57.317Z,53.33
2018-11-11T15:25:27.185Z,54.54
2018-11-11T15:27:55.831Z,55.24
2018-11-11T15:30:25.955Z,55.40
2018-11-11T15:32:55.404Z,55.50
2018-11-11T15:35:24.113Z,56.56
2018-11-11T15:37:52.782Z,56.73
2018-11-11T15:40:22.855Z,56.40
2018-11-11T15:42:51.638Z,57.30
2018-11-11T15:45:22.477Z,57.02
2018-11-11T15:47:51.177Z,57.79
2018-11-11T15:50:21.347Z,57.89
2018-11-11T15:52:51.398Z,57.30
2018-11-11T15:55:21.054Z,58.19
2018-11-11T15:57:49.751Z,58.33
2018-11-11T16:00:23.834Z,58.15
2018-11-11T16:02:52.528Z,58.16
2018-11-11T16:05:21.382Z,58.81
2018-11-11T16:07:50.902Z,58.27
2018-11-11T16:10:25.754Z,58.66
2018-11-11T16:12:54.416Z,59.38
2018-11-11T16:15:25.336Z,60.04
2018-11-11T16:17:55.779Z,59.94
2018-11-11T16:20:25.765Z,60.03
2018-11-11T16:22:55.731Z,59.33
2018-11-11T16:25:24.428Z,59.73
2018-11-11T16:27:53.135Z,60.23
2018-11-11T16:30:24.127Z,60.61
2018-11-11T16:32:53.294Z,61.60
2018-11-11T16:35:23.238Z,61.81
2018-11-11T16:37:51.982Z,62.45
2018-11-11T16:40:23.892Z,62.49
2018-11-11T16:42:52.825Z,62.59
2018-11-11T16:45:23.201Z,63.32
2018-11-11T16:47:51.963Z,63.10
2018-11-11T16:50:23.910Z,62.92
2018-11-11T16:52:53.289Z,63.43
2018-11-11T16:55:23.468Z,64.38
2018-11-11T16:57:52.066Z,64.67
2018-11-11T17:00:23.104Z,63.79
2018-11-11T17:02:52.201Z,64.14
2018-11-11T17:05:22.229Z,64.68
2018-11-11T17:07:51.222Z,65.96
2018-11-11T17:10:23.941Z,66.42
2018-11-11T17:12:53.589Z,66.60
2018-11-11T17:15:23.834Z,66.76
2018-11-11T17:17:52.509Z,66.70
2018-11-11T17:20:22.274Z,67.95
2018-11-11T17:22:51.722Z,68.37
2018-11-11T17:25:21.350Z,68.54
2018-11-11T17:27:50.027Z,68.11
2018-11-11T17:30:21.116Z,68.32
2018-11-11T17:32:50.565Z,67.74
2018-11-11T17:35:19.266Z,67.79
2018-11-11T17:37:48.415Z,68.32
2018-11-11T17:40:19.316Z,68.74
2018-11-11T17:42:49.244Z,68.46
2018-11-11T17:45:18.219Z,68.48
2018-11-11T17:47:47.440Z,69.52
2018-11-11T17:50:19.279Z,70.73
2018-11-11T17:52:47.933Z,70.44
2018-11-11T17:55:17.930Z,71.01
2018-11-11T17:57:46.711Z,71.02
2018-11-11T18:00:18.725Z,71.47
2018-11-11T18:02:47.451Z,71.20
2018-11-11T18:05:17.497Z,71.31
2018-11-11T18:07:46.201Z,71.04
2018-11-11T18:10:16.136Z,70.85
2018-11-11T18:12:44.864Z,71.41
2018-11-11T18:15:15.765Z,71.61
2018-11-11T18:17:44.405Z,71.67
2018-11-11T18:20:24.696Z,71.73
2018-11-11T18:22:54.403Z,71.71
2018-11-11T18:25:23.378Z,71.83
2018-11-11T18:27:52.170Z,72.02
2018-11-11T18:30:24.486Z,71.96
2018-11-11T18:32:53.169Z,72.11
2018-11-11T18:35:22.133Z,72.52
2018-11-11T18:37:50.757Z,72.22
2018-11-11T18:40:20.809Z,72.00
2018-11-11T18:42:49.528Z,71.55
2018-11-11T18:45:20.630Z,71.82
2018-11-11T18:47:50.073Z,71.95
2018-11-11T18:50:22.441Z,71.97
2018-11-11T18:52:51.137Z,71.93
2018-11-11T18:55:19.822Z,72.05
2018-11-11T18:57:48.598Z,71.85
2018-11-11T19:00:25.216Z,72.15
2018-11-11T19:02:54.732Z,72.43
2018-11-11T19:05:24.067Z,72.57
2018-11-11T19:07:52.993Z,72.48
2018-11-11T19:10:23.860Z,73.11
2018-11-11T19:12:53.835Z,72.67
2018-11-11T19:15:22.812Z,72.98
2018-11-11T19:17:52.224Z,72.64
2018-11-11T19:20:22.228Z,73.02
2018-11-11T19:22:50.886Z,73.32
2018-11-11T19:25:20.953Z,73.33
2018-11-11T19:27:50.857Z,73.57
2018-11-11T19:30:20.655Z,73.63
2018-11-11T19:32:49.981Z,72.91
2018-11-11T19:35:18.874Z,72.59
2018-11-11T19:37:48.784Z,73.12
2018-11-11T19:40:19.004Z,72.87
2018-11-11T19:42:48.079Z,72.74
2018-11-11T19:45:19.009Z,73.25
2018-11-11T19:47:48.565Z,73.70
2018-11-11T19:50:18.628Z,73.59
2018-11-11T19:52:48.566Z,73.53
2018-11-11T19:55:18.462Z,73.33
2018-11-11T19:57:47.116Z,73.45
2018-11-11T20:00:18.553Z,73.79
2018-11-11T20:02:48.197Z,74.52
2018-11-11T20:05:17.483Z,75.04
2018-11-11T20:07:48.460Z,75.37
2018-11-11T20:10:18.189Z,75.44
2018-11-11T20:12:46.858Z,75.46
2018-11-11T20:15:18.687Z,76.03
2018-11-11T20:17:47.834Z,76.17
2018-11-11T20:20:20.090Z,76.24
2018-11-11T20:22:49.103Z,76.69
2018-11-11T20:25:18.627Z,76.00
2018-11-11T20:27:47.662Z,76.03
2018-11-11T20:30:19.887Z,76.47
2018-11-11T20:32:48.634Z,76.05
2018-11-11T20:35:19.223Z,76.74
2018-11-11T20:37:47.837Z,76.79
2018-11-11T20:40:17.852Z,77.18
2018-11-11T20:42:47.005Z,76.84
2018-11-11T20:45:16.794Z,77.08
2018-11-11T20:47:46.004Z,77.39
2018-11-11T20:50:16.608Z,77.25
2018-11-11T20:52:46.325Z,77.52
2018-11-11T20:55:16.430Z,77.22
2018-11-11T20:57:45.067Z,77.69
2018-11-11T21:00:17.186Z,77.94
2018-11-11T21:02:45.843Z,78.31
2018-11-11T21:05:15.793Z,77.98
2018-11-11T21:07:44.520Z,78.02
2018-11-11T21:10:15.605Z,78.22
2018-11-11T21:12:44.317Z,78.22
2018-11-11T21:15:15.421Z,78.01
2018-11-11T21:17:44.417Z,78.19
2018-11-11T21:20:14.369Z,78.61
2018-11-11T21:22:43.321Z,78.32
2018-11-11T21:25:12.614Z,78.13
2018-11-11T21:27:42.379Z,77.92
2018-11-11T21:30:13.734Z,78.04
2018-11-11T21:32:42.454Z,77.53
2018-11-11T21:35:11.631Z,76.97
2018-11-11T21:37:40.404Z,77.03
2018-11-11T21:40:12.597Z,77.04
2018-11-11T21:42:41.806Z,77.98
2018-11-11T21:45:12.128Z,78.53
2018-11-11T21:47:41.107Z,79.05
2018-11-11T21:50:11.914Z,79.76
2018-11-11T21:52:40.917Z,79.70
2018-11-11T21:55:09.905Z,79.14
2018-11-11T21:57:39.077Z,79.10
2018-11-11T22:00:11.719Z,78.99
2018-11-11T22:02:40.476Z,78.89
2018-11-11T22:05:10.579Z,79.25
2018-11-11T22:07:39.680Z,79.19
2018-11-11T22:10:10.418Z,78.93
2018-11-11T22:12:39.108Z,78.62
2018-11-11T22:15:09.058Z,78.68
2018-11-11T22:17:37.770Z,78.67
2018-11-11T22:20:07.239Z,79.01
2018-11-11T22:22:35.946Z,78.30
2018-11-11T22:25:05.082Z,77.81
2018-11-11T22:27:33.812Z,77.74
2018-11-11T22:30:02.458Z,78.09
2018-11-11T22:32:31.105Z,78.38
2018-11-11T22:34:59.718Z,78.26
2018-11-11T22:37:28.383Z,78.19
2018-11-11T22:39:57.039Z,78.22
2018-11-11T22:42:25.774Z,78.11
2018-11-11T22:44:54.425Z,78.42
2018-11-11T22:47:23.077Z,78.92
2018-11-11T22:49:51.998Z,78.71
2018-11-11T22:52:20.749Z,79.41
2018-11-11T22:54:49.421Z,80.21
2018-11-11T22:57:18.094Z,80.33
2018-11-11T22:59:46.758Z,80.82
2018-11-11T23:02:15.449Z,81.13
2018-11-11T23:04:44.146Z,81.57
2018-11-11T23:07:12.810Z,81.81
2018-11-11T23:09:41.458Z,81.28
2018-11-11T23:12:10.160Z,80.95
2018-11-11T23:14:38.897Z,81.09
2018-11-11T23:17:07.528Z,81.98
2018-11-11T23:19:36.205Z,82.37
2018-11-11T23:22:05.230Z,82.28
2018-11-11T23:24:33.853Z,81.53
2018-11-11T23:27:02.558Z,81.57
2018-11-11T23:29:31.250Z,81.90
2018-11-11T23:31:59.916Z,81.98
2018-11-11T23:34:28.638Z,81.59
2018-11-11T23:36:57.427Z,81.69
2018-11-11T23:39:26.132Z,81.40
2018-11-11T23:41:54.783Z,81.93
2018-11-11T23:44:23.450Z,82.06
2018-11-11T23:46:52.109Z,82.41
2018-11-11T23:49:20.800Z,83.18
2018-11-11T23:51:49.483Z,82.27
2018-11-11T23:54:18.130Z,81.45
2018-11-11T23:56:47.173Z,81.43
2018-11-11T23:59:15.857Z,80.02
